Main page
METAR-TAF:

METAR-TAF

Airports :

RAF Leeming

Leeming, England

latitude: 54-18N, longitude: 001-32W, elevation: 40 m

Current weather observation

The report was made 53 minutes ago, at 03:50 UTC
Wind 3 kt from the West/Southwest
Temperature 16°C
Humidity 82%
Pressure 1013 hPa
Visibility 10 km or more

METAR: EGXE 220350Z AUTO 24003KT 9999 BKN035/// SCT044/// 16/13 Q1013

Time: 05:43 (04:43 UTC)


TAF: missing

Weather observations and forecasts of more than 4000 airports (METAR and TAF reports).

The available stations are represented by yellow and red dots on the map.

Hover mouse over dot to see the name of the station.

Then click to see weather observations and forecasts.

To change the map : click on the green buttons with a black cross to zoom in, on the green button with a dash to zoom out, or on the green arrows for adjacent maps.


METAR-TAF: